sensor_id;sensor_type;location;lat;lon;timestamp;P1;durP1;ratioP1;P2;durP2;ratioP2
3278;SDS011;1651;50.940;6.888;2023-08-06T00:01:54;5.10;;;3.80;;
3278;SDS011;1651;50.940;6.888;2023-08-06T00:04:32;6.87;;;3.10;;
3278;SDS011;1651;50.940;6.888;2023-08-06T00:06:58;4.40;;;3.30;;
3278;SDS011;1651;50.940;6.888;2023-08-06T00:09:24;3.00;;;2.70;;
3278;SDS011;1651;50.940;6.888;2023-08-06T00:11:50;4.30;;;3.17;;
3278;SDS011;1651;50.940;6.888;2023-08-06T00:14:16;4.00;;;3.20;;
3278;SDS011;1651;50.940;6.888;2023-08-06T00:16:43;2.87;;;2.60;;
3278;SDS011;1651;50.940;6.888;2023-08-06T00:19:11;4.83;;;3.10;;
3278;SDS011;1651;50.940;6.888;2023-08-06T00:21:37;3.73;;;3.33;;
3278;SDS011;1651;50.940;6.888;2023-08-06T00:24:06;3.97;;;3.57;;
3278;SDS011;1651;50.940;6.888;2023-08-06T00:26:32;6.27;;;3.60;;
3278;SDS011;1651;50.940;6.888;2023-08-06T00:28:58;3.67;;;2.70;;
3278;SDS011;1651;50.940;6.888;2023-08-06T00:31:23;4.23;;;3.27;;
3278;SDS011;1651;50.940;6.888;2023-08-06T00:33:49;6.47;;;3.47;;
3278;SDS011;1651;50.940;6.888;2023-08-06T00:36:15;9.53;;;3.57;;
3278;SDS011;1651;50.940;6.888;2023-08-06T00:38:42;5.57;;;3.37;;
3278;SDS011;1651;50.940;6.888;2023-08-06T00:41:08;3.00;;;2.70;;
3278;SDS011;1651;50.940;6.888;2023-08-06T00:43:34;4.77;;;3.53;;
3278;SDS011;1651;50.940;6.888;2023-08-06T00:46:00;4.10;;;3.20;;
3278;SDS011;1651;50.940;6.888;2023-08-06T00:48:27;4.60;;;3.23;;
3278;SDS011;1651;50.940;6.888;2023-08-06T00:50:54;3.87;;;3.13;;
3278;SDS011;1651;50.940;6.888;2023-08-06T00:53:21;6.27;;;3.57;;
3278;SDS011;1651;50.940;6.888;2023-08-06T00:55:47;5.37;;;3.33;;
3278;SDS011;1651;50.940;6.888;2023-08-06T00:58:14;4.43;;;3.43;;
3278;SDS011;1651;50.940;6.888;2023-08-06T01:00:42;4.67;;;3.13;;
3278;SDS011;1651;50.940;6.888;2023-08-06T01:03:08;6.00;;;3.90;;
3278;SDS011;1651;50.940;6.888;2023-08-06T01:05:34;4.47;;;3.60;;
3278;SDS011;1651;50.940;6.888;2023-08-06T01:14:13;4.00;;;3.30;;
3278;SDS011;1651;50.940;6.888;2023-08-06T01:16:11;5.13;;;3.40;;
3278;SDS011;1651;50.940;6.888;2023-08-06T01:18:37;4.27;;;3.33;;
3278;SDS011;1651;50.940;6.888;2023-08-06T01:21:04;6.67;;;2.97;;
3278;SDS011;1651;50.940;6.888;2023-08-06T01:23:30;6.63;;;5.63;;
3278;SDS011;1651;50.940;6.888;2023-08-06T01:31:05;5.67;;;3.10;;
3278;SDS011;1651;50.940;6.888;2023-08-06T01:33:35;4.63;;;3.43;;
3278;SDS011;1651;50.940;6.888;2023-08-06T01:36:03;8.17;;;3.97;;
3278;SDS011;1651;50.940;6.888;2023-08-06T01:38:30;4.67;;;3.47;;
3278;SDS011;1651;50.940;6.888;2023-08-06T01:40:56;3.47;;;3.03;;
3278;SDS011;1651;50.940;6.888;2023-08-06T01:43:22;4.30;;;3.20;;
3278;SDS011;1651;50.940;6.888;2023-08-06T01:45:48;4.63;;;2.90;;
3278;SDS011;1651;50.940;6.888;2023-08-06T01:48:14;3.90;;;3.40;;
3278;SDS011;1651;50.940;6.888;2023-08-06T01:50:40;3.23;;;2.90;;
3278;SDS011;1651;50.940;6.888;2023-08-06T01:53:07;3.40;;;2.80;;
3278;SDS011;1651;50.940;6.888;2023-08-06T01:55:33;4.77;;;3.20;;
3278;SDS011;1651;50.940;6.888;2023-08-06T01:57:59;4.33;;;3.10;;
3278;SDS011;1651;50.940;6.888;2023-08-06T02:00:25;3.60;;;2.97;;
3278;SDS011;1651;50.940;6.888;2023-08-06T02:02:52;5.77;;;3.50;;
3278;SDS011;1651;50.940;6.888;2023-08-06T02:05:19;3.30;;;3.00;;
3278;SDS011;1651;50.940;6.888;2023-08-06T02:07:45;4.80;;;3.40;;
3278;SDS011;1651;50.940;6.888;2023-08-06T02:10:12;5.10;;;3.23;;
3278;SDS011;1651;50.940;6.888;2023-08-06T02:12:38;3.80;;;3.47;;
3278;SDS011;1651;50.940;6.888;2023-08-06T02:15:04;3.87;;;3.13;;
3278;SDS011;1651;50.940;6.888;2023-08-06T02:17:30;7.40;;;3.50;;
3278;SDS011;1651;50.940;6.888;2023-08-06T02:19:56;4.77;;;3.23;;
3278;SDS011;1651;50.940;6.888;2023-08-06T02:22:22;3.60;;;3.30;;
3278;SDS011;1651;50.940;6.888;2023-08-06T02:24:49;7.40;;;3.93;;
3278;SDS011;1651;50.940;6.888;2023-08-06T02:27:15;5.63;;;3.03;;
3278;SDS011;1651;50.940;6.888;2023-08-06T02:29:41;8.53;;;3.40;;
3278;SDS011;1651;50.940;6.888;2023-08-06T02:32:07;3.07;;;2.70;;
3278;SDS011;1651;50.940;6.888;2023-08-06T02:34:33;4.20;;;3.27;;
3278;SDS011;1651;50.940;6.888;2023-08-06T02:36:59;4.77;;;3.50;;
3278;SDS011;1651;50.940;6.888;2023-08-06T02:39:25;4.10;;;3.30;;
3278;SDS011;1651;50.940;6.888;2023-08-06T02:41:52;3.60;;;3.17;;
3278;SDS011;1651;50.940;6.888;2023-08-06T02:44:19;3.77;;;3.37;;
3278;SDS011;1651;50.940;6.888;2023-08-06T02:46:45;5.10;;;3.33;;
3278;SDS011;1651;50.940;6.888;2023-08-06T02:49:11;3.80;;;3.30;;
3278;SDS011;1651;50.940;6.888;2023-08-06T02:51:37;3.23;;;2.93;;
3278;SDS011;1651;50.940;6.888;2023-08-06T02:54:03;6.33;;;4.50;;
3278;SDS011;1651;50.940;6.888;2023-08-06T02:56:29;3.83;;;3.03;;
3278;SDS011;1651;50.940;6.888;2023-08-06T02:58:55;4.10;;;3.13;;
3278;SDS011;1651;50.940;6.888;2023-08-06T03:01:21;5.10;;;3.33;;
3278;SDS011;1651;50.940;6.888;2023-08-06T03:03:48;5.23;;;3.30;;
3278;SDS011;1651;50.940;6.888;2023-08-06T03:06:14;3.60;;;3.30;;
3278;SDS011;1651;50.940;6.888;2023-08-06T03:08:42;3.20;;;2.90;;
3278;SDS011;1651;50.940;6.888;2023-08-06T03:11:08;5.33;;;2.80;;
3278;SDS011;1651;50.940;6.888;2023-08-06T03:13:34;5.33;;;2.90;;
3278;SDS011;1651;50.940;6.888;2023-08-06T03:16:00;5.60;;;3.60;;
3278;SDS011;1651;50.940;6.888;2023-08-06T03:18:26;4.40;;;3.60;;
3278;SDS011;1651;50.940;6.888;2023-08-06T03:20:53;3.97;;;3.20;;
3278;SDS011;1651;50.940;6.888;2023-08-06T03:23:20;5.70;;;2.93;;
3278;SDS011;1651;50.940;6.888;2023-08-06T03:25:46;5.70;;;3.23;;
3278;SDS011;1651;50.940;6.888;2023-08-06T03:28:12;4.83;;;3.20;;
3278;SDS011;1651;50.940;6.888;2023-08-06T03:30:38;5.97;;;3.30;;
3278;SDS011;1651;50.940;6.888;2023-08-06T03:33:04;5.93;;;2.73;;
3278;SDS011;1651;50.940;6.888;2023-08-06T03:35:30;4.17;;;3.10;;
3278;SDS011;1651;50.940;6.888;2023-08-06T03:37:56;3.50;;;3.20;;
3278;SDS011;1651;50.940;6.888;2023-08-06T03:40:23;4.20;;;2.87;;
3278;SDS011;1651;50.940;6.888;2023-08-06T03:42:51;5.33;;;3.37;;
3278;SDS011;1651;50.940;6.888;2023-08-06T03:45:17;5.30;;;3.07;;
3278;SDS011;1651;50.940;6.888;2023-08-06T03:47:43;4.70;;;3.40;;
3278;SDS011;1651;50.940;6.888;2023-08-06T03:50:09;3.17;;;2.80;;
3278;SDS011;1651;50.940;6.888;2023-08-06T03:52:35;4.33;;;2.80;;
3278;SDS011;1651;50.940;6.888;2023-08-06T03:55:01;5.50;;;3.27;;
3278;SDS011;1651;50.940;6.888;2023-08-06T03:57:27;3.27;;;2.97;;
3278;SDS011;1651;50.940;6.888;2023-08-06T03:59:53;3.87;;;3.00;;
3278;SDS011;1651;50.940;6.888;2023-08-06T04:02:19;4.63;;;3.30;;
3278;SDS011;1651;50.940;6.888;2023-08-06T04:04:45;5.03;;;3.17;;
3278;SDS011;1651;50.940;6.888;2023-08-06T04:07:12;4.03;;;3.10;;
3278;SDS011;1651;50.940;6.888;2023-08-06T04:10:00;7.40;;;2.90;;
3278;SDS011;1651;50.940;6.888;2023-08-06T04:12:24;4.50;;;3.33;;
3278;SDS011;1651;50.940;6.888;2023-08-06T04:14:51;6.30;;;3.10;;
3278;SDS011;1651;50.940;6.888;2023-08-06T04:17:17;4.43;;;3.27;;
3278;SDS011;1651;50.940;6.888;2023-08-06T04:19:47;4.87;;;2.90;;
3278;SDS011;1651;50.940;6.888;2023-08-06T04:22:13;4.90;;;2.97;;
3278;SDS011;1651;50.940;6.888;2023-08-06T04:24:39;3.80;;;2.97;;
3278;SDS011;1651;50.940;6.888;2023-08-06T04:27:06;3.03;;;2.73;;
3278;SDS011;1651;50.940;6.888;2023-08-06T04:29:32;4.17;;;2.60;;
3278;SDS011;1651;50.940;6.888;2023-08-06T04:31:58;3.00;;;2.57;;
3278;SDS011;1651;50.940;6.888;2023-08-06T04:34:24;4.30;;;3.10;;
3278;SDS011;1651;50.940;6.888;2023-08-06T04:36:50;3.30;;;2.90;;
3278;SDS011;1651;50.940;6.888;2023-08-06T04:39:16;3.70;;;3.27;;
3278;SDS011;1651;50.940;6.888;2023-08-06T04:41:43;7.77;;;2.63;;
3278;SDS011;1651;50.940;6.888;2023-08-06T04:44:09;4.70;;;2.80;;
3278;SDS011;1651;50.940;6.888;2023-08-06T04:46:35;4.83;;;2.90;;
3278;SDS011;1651;50.940;6.888;2023-08-06T04:49:01;3.90;;;3.50;;
3278;SDS011;1651;50.940;6.888;2023-08-06T04:51:27;4.60;;;2.90;;
3278;SDS011;1651;50.940;6.888;2023-08-06T04:53:53;5.53;;;2.93;;
3278;SDS011;1651;50.940;6.888;2023-08-06T04:56:19;5.00;;;3.20;;
3278;SDS011;1651;50.940;6.888;2023-08-06T04:58:45;4.27;;;3.33;;
3278;SDS011;1651;50.940;6.888;2023-08-06T05:01:11;4.03;;;2.80;;
3278;SDS011;1651;50.940;6.888;2023-08-06T05:03:37;5.80;;;3.73;;
3278;SDS011;1651;50.940;6.888;2023-08-06T05:06:03;3.50;;;2.90;;
3278;SDS011;1651;50.940;6.888;2023-08-06T05:08:29;6.60;;;3.50;;
3278;SDS011;1651;50.940;6.888;2023-08-06T05:10:55;6.47;;;3.23;;
3278;SDS011;1651;50.940;6.888;2023-08-06T05:13:22;4.30;;;3.50;;
3278;SDS011;1651;50.940;6.888;2023-08-06T05:15:48;3.47;;;3.00;;
3278;SDS011;1651;50.940;6.888;2023-08-06T05:18:14;3.70;;;3.27;;
3278;SDS011;1651;50.940;6.888;2023-08-06T05:20:40;4.47;;;3.03;;
3278;SDS011;1651;50.940;6.888;2023-08-06T05:23:07;6.90;;;3.67;;
3278;SDS011;1651;50.940;6.888;2023-08-06T05:25:36;5.33;;;3.87;;
3278;SDS011;1651;50.940;6.888;2023-08-06T05:28:02;5.40;;;4.10;;
3278;SDS011;1651;50.940;6.888;2023-08-06T05:30:28;5.10;;;3.60;;
3278;SDS011;1651;50.940;6.888;2023-08-06T05:32:54;5.03;;;3.10;;
3278;SDS011;1651;50.940;6.888;2023-08-06T05:35:21;4.00;;;3.20;;
3278;SDS011;1651;50.940;6.888;2023-08-06T05:37:47;9.23;;;3.30;;
3278;SDS011;1651;50.940;6.888;2023-08-06T05:40:13;5.20;;;3.40;;
3278;SDS011;1651;50.940;6.888;2023-08-06T05:42:39;3.20;;;2.80;;
3278;SDS011;1651;50.940;6.888;2023-08-06T05:45:06;3.57;;;3.17;;
3278;SDS011;1651;50.940;6.888;2023-08-06T05:47:32;4.07;;;3.40;;
3278;SDS011;1651;50.940;6.888;2023-08-06T05:49:58;4.93;;;3.40;;
3278;SDS011;1651;50.940;6.888;2023-08-06T05:52:24;3.87;;;3.10;;
3278;SDS011;1651;50.940;6.888;2023-08-06T05:54:50;5.23;;;3.53;;
3278;SDS011;1651;50.940;6.888;2023-08-06T05:57:16;3.73;;;3.33;;
3278;SDS011;1651;50.940;6.888;2023-08-06T05:59:42;6.90;;;3.67;;
3278;SDS011;1651;50.940;6.888;2023-08-06T06:02:08;5.87;;;3.17;;
3278;SDS011;1651;50.940;6.888;2023-08-06T06:04:34;4.87;;;3.13;;
3278;SDS011;1651;50.940;6.888;2023-08-06T06:07:00;8.03;;;4.00;;
3278;SDS011;1651;50.940;6.888;2023-08-06T06:09:27;4.97;;;3.60;;
3278;SDS011;1651;50.940;6.888;2023-08-06T06:11:53;3.53;;;3.17;;
3278;SDS011;1651;50.940;6.888;2023-08-06T06:14:19;3.63;;;3.33;;
3278;SDS011;1651;50.940;6.888;2023-08-06T06:16:45;4.40;;;3.00;;
3278;SDS011;1651;50.940;6.888;2023-08-06T06:19:13;5.40;;;3.67;;
3278;SDS011;1651;50.940;6.888;2023-08-06T06:21:41;4.00;;;3.60;;
3278;SDS011;1651;50.940;6.888;2023-08-06T06:24:07;5.90;;;3.50;;
3278;SDS011;1651;50.940;6.888;2023-08-06T06:26:36;3.50;;;3.20;;
3278;SDS011;1651;50.940;6.888;2023-08-06T06:29:04;7.77;;;3.30;;
3278;SDS011;1651;50.940;6.888;2023-08-06T06:31:30;4.20;;;2.80;;
3278;SDS011;1651;50.940;6.888;2023-08-06T06:33:56;3.00;;;2.60;;
3278;SDS011;1651;50.940;6.888;2023-08-06T06:36:22;7.97;;;3.00;;
3278;SDS011;1651;50.940;6.888;2023-08-06T06:38:48;8.70;;;2.50;;
3278;SDS011;1651;50.940;6.888;2023-08-06T06:41:14;3.87;;;1.77;;
3278;SDS011;1651;50.940;6.888;2023-08-06T06:43:40;1.90;;;1.53;;
3278;SDS011;1651;50.940;6.888;2023-08-06T06:46:07;2.00;;;1.80;;
3278;SDS011;1651;50.940;6.888;2023-08-06T06:48:33;3.17;;;1.90;;
3278;SDS011;1651;50.940;6.888;2023-08-06T06:50:59;2.60;;;1.80;;
3278;SDS011;1651;50.940;6.888;2023-08-06T06:53:25;2.17;;;1.63;;
3278;SDS011;1651;50.940;6.888;2023-08-06T06:56:03;1.53;;;1.37;;
3278;SDS011;1651;50.940;6.888;2023-08-06T06:58:30;2.27;;;1.80;;
3278;SDS011;1651;50.940;6.888;2023-08-06T07:00:56;2.40;;;1.40;;
3278;SDS011;1651;50.940;6.888;2023-08-06T07:03:22;2.47;;;1.33;;
3278;SDS011;1651;50.940;6.888;2023-08-06T07:05:49;4.20;;;1.30;;
3278;SDS011;1651;50.940;6.888;2023-08-06T07:08:15;2.43;;;1.87;;
3278;SDS011;1651;50.940;6.888;2023-08-06T07:10:41;1.43;;;1.30;;
3278;SDS011;1651;50.940;6.888;2023-08-06T07:13:08;1.73;;;1.63;;
3278;SDS011;1651;50.940;6.888;2023-08-06T07:15:34;3.10;;;1.37;;
3278;SDS011;1651;50.940;6.888;2023-08-06T07:18:00;2.70;;;1.40;;
3278;SDS011;1651;50.940;6.888;2023-08-06T07:20:26;1.93;;;1.73;;
3278;SDS011;1651;50.940;6.888;2023-08-06T07:22:56;1.97;;;1.77;;
3278;SDS011;1651;50.940;6.888;2023-08-06T07:25:22;1.30;;;1.13;;
3278;SDS011;1651;50.940;6.888;2023-08-06T07:27:48;1.60;;;1.50;;
3278;SDS011;1651;50.940;6.888;2023-08-06T07:30:14;1.40;;;1.30;;
3278;SDS011;1651;50.940;6.888;2023-08-06T07:32:40;2.10;;;1.20;;
3278;SDS011;1651;50.940;6.888;2023-08-06T07:35:06;2.77;;;2.07;;
3278;SDS011;1651;50.940;6.888;2023-08-06T07:37:34;1.97;;;1.50;;
3278;SDS011;1651;50.940;6.888;2023-08-06T07:42:41;1.80;;;1.37;;
3278;SDS011;1651;50.940;6.888;2023-08-06T07:45:11;4.83;;;2.40;;
3278;SDS011;1651;50.940;6.888;2023-08-06T07:47:37;1.70;;;1.60;;
3278;SDS011;1651;50.940;6.888;2023-08-06T07:50:03;1.93;;;1.40;;
3278;SDS011;1651;50.940;6.888;2023-08-06T07:52:32;2.43;;;1.50;;
3278;SDS011;1651;50.940;6.888;2023-08-06T07:54:59;2.63;;;1.50;;
3278;SDS011;1651;50.940;6.888;2023-08-06T07:57:32;1.67;;;1.20;;
3278;SDS011;1651;50.940;6.888;2023-08-06T08:00:03;1.40;;;1.30;;
3278;SDS011;1651;50.940;6.888;2023-08-06T08:02:30;4.50;;;1.73;;
3278;SDS011;1651;50.940;6.888;2023-08-06T08:04:56;1.43;;;1.07;;
3278;SDS011;1651;50.940;6.888;2023-08-06T08:07:24;1.57;;;1.23;;
3278;SDS011;1651;50.940;6.888;2023-08-06T08:09:52;1.20;;;1.10;;
3278;SDS011;1651;50.940;6.888;2023-08-06T08:12:28;2.27;;;1.30;;
3278;SDS011;1651;50.940;6.888;2023-08-06T08:14:57;2.13;;;1.03;;
3278;SDS011;1651;50.940;6.888;2023-08-06T08:17:23;1.30;;;1.20;;
3278;SDS011;1651;50.940;6.888;2023-08-06T08:19:52;1.80;;;1.23;;
3278;SDS011;1651;50.940;6.888;2023-08-06T08:22:20;1.40;;;1.30;;
3278;SDS011;1651;50.940;6.888;2023-08-06T08:24:47;1.83;;;1.30;;
3278;SDS011;1651;50.940;6.888;2023-08-06T08:27:13;1.80;;;1.20;;
3278;SDS011;1651;50.940;6.888;2023-08-06T08:29:48;1.97;;;1.27;;
3278;SDS011;1651;50.940;6.888;2023-08-06T08:32:14;1.87;;;1.10;;
3278;SDS011;1651;50.940;6.888;2023-08-06T08:34:43;2.20;;;1.57;;
3278;SDS011;1651;50.940;6.888;2023-08-06T08:37:13;1.60;;;1.07;;
3278;SDS011;1651;50.940;6.888;2023-08-06T08:39:39;1.30;;;1.20;;
3278;SDS011;1651;50.940;6.888;2023-08-06T08:42:08;1.33;;;1.23;;
3278;SDS011;1651;50.940;6.888;2023-08-06T08:47:39;2.60;;;1.03;;
3278;SDS011;1651;50.940;6.888;2023-08-06T08:50:23;1.93;;;1.30;;
3278;SDS011;1651;50.940;6.888;2023-08-06T08:52:52;2.67;;;1.40;;
3278;SDS011;1651;50.940;6.888;2023-08-06T08:55:18;1.90;;;1.77;;
3278;SDS011;1651;50.940;6.888;2023-08-06T08:57:46;1.30;;;1.20;;
3278;SDS011;1651;50.940;6.888;2023-08-06T09:00:12;1.03;;;0.93;;
3278;SDS011;1651;50.940;6.888;2023-08-06T09:02:39;1.73;;;1.30;;
3278;SDS011;1651;50.940;6.888;2023-08-06T09:05:07;1.40;;;1.30;;
3278;SDS011;1651;50.940;6.888;2023-08-06T09:07:44;1.60;;;1.30;;
3278;SDS011;1651;50.940;6.888;2023-08-06T09:10:12;3.57;;;1.30;;
3278;SDS011;1651;50.940;6.888;2023-08-06T09:12:40;1.90;;;1.43;;
3278;SDS011;1651;50.940;6.888;2023-08-06T09:15:07;1.73;;;1.63;;
3278;SDS011;1651;50.940;6.888;2023-08-06T09:17:33;1.23;;;1.10;;
3278;SDS011;1651;50.940;6.888;2023-08-06T09:20:08;4.37;;;2.10;;
3278;SDS011;1651;50.940;6.888;2023-08-06T09:22:34;2.63;;;1.80;;
3278;SDS011;1651;50.940;6.888;2023-08-06T09:25:00;2.00;;;1.47;;
3278;SDS011;1651;50.940;6.888;2023-08-06T09:27:26;2.00;;;1.80;;
3278;SDS011;1651;50.940;6.888;2023-08-06T09:29:53;6.43;;;2.70;;
3278;SDS011;1651;50.940;6.888;2023-08-06T09:32:19;2.27;;;2.03;;
3278;SDS011;1651;50.940;6.888;2023-08-06T09:34:46;3.80;;;2.67;;
3278;SDS011;1651;50.940;6.888;2023-08-06T09:37:12;5.13;;;2.20;;
3278;SDS011;1651;50.940;6.888;2023-08-06T09:39:39;2.30;;;2.10;;
3278;SDS011;1651;50.940;6.888;2023-08-06T09:42:06;2.60;;;2.40;;
3278;SDS011;1651;50.940;6.888;2023-08-06T09:44:33;6.23;;;2.80;;
3278;SDS011;1651;50.940;6.888;2023-08-06T09:47:00;4.17;;;2.77;;
3278;SDS011;1651;50.940;6.888;2023-08-06T09:52:00;2.80;;;2.53;;
3278;SDS011;1651;50.940;6.888;2023-08-06T09:54:26;3.00;;;2.70;;
3278;SDS011;1651;50.940;6.888;2023-08-06T09:56:54;4.10;;;2.97;;
3278;SDS011;1651;50.940;6.888;2023-08-06T09:59:20;3.67;;;3.37;;
3278;SDS011;1651;50.940;6.888;2023-08-06T10:01:48;5.60;;;2.67;;
3278;SDS011;1651;50.940;6.888;2023-08-06T10:04:14;3.27;;;2.90;;
3278;SDS011;1651;50.940;6.888;2023-08-06T10:06:46;3.23;;;2.60;;
3278;SDS011;1651;50.940;6.888;2023-08-06T10:09:13;1.87;;;1.30;;
3278;SDS011;1651;50.940;6.888;2023-08-06T10:11:39;2.33;;;1.53;;
3278;SDS011;1651;50.940;6.888;2023-08-06T10:14:13;1.83;;;1.03;;
3278;SDS011;1651;50.940;6.888;2023-08-06T10:16:40;0.80;;;0.77;;
3278;SDS011;1651;50.940;6.888;2023-08-06T10:19:07;1.50;;;0.70;;
3278;SDS011;1651;50.940;6.888;2023-08-06T10:21:33;0.90;;;0.70;;
3278;SDS011;1651;50.940;6.888;2023-08-06T10:23:59;0.97;;;0.87;;
3278;SDS011;1651;50.940;6.888;2023-08-06T10:26:27;1.23;;;0.90;;
3278;SDS011;1651;50.940;6.888;2023-08-06T10:28:53;1.43;;;0.90;;
3278;SDS011;1651;50.940;6.888;2023-08-06T10:31:19;2.00;;;1.00;;
3278;SDS011;1651;50.940;6.888;2023-08-06T10:33:46;1.03;;;0.80;;
3278;SDS011;1651;50.940;6.888;2023-08-06T10:36:13;1.33;;;0.97;;
3278;SDS011;1651;50.940;6.888;2023-08-06T10:38:46;1.00;;;0.90;;
3278;SDS011;1651;50.940;6.888;2023-08-06T10:41:23;1.37;;;1.03;;
3278;SDS011;1651;50.940;6.888;2023-08-06T10:43:53;1.87;;;1.30;;
3278;SDS011;1651;50.940;6.888;2023-08-06T10:46:32;2.20;;;1.27;;
3278;SDS011;1651;50.940;6.888;2023-08-06T10:48:58;2.07;;;1.87;;
3278;SDS011;1651;50.940;6.888;2023-08-06T10:51:25;2.37;;;1.60;;
3278;SDS011;1651;50.940;6.888;2023-08-06T10:53:51;2.53;;;1.83;;
3278;SDS011;1651;50.940;6.888;2023-08-06T10:56:19;2.63;;;1.63;;
3278;SDS011;1651;50.940;6.888;2023-08-06T10:58:47;2.90;;;1.70;;
3278;SDS011;1651;50.940;6.888;2023-08-06T11:01:13;2.60;;;1.73;;
3278;SDS011;1651;50.940;6.888;2023-08-06T11:03:41;2.33;;;1.60;;
3278;SDS011;1651;50.940;6.888;2023-08-06T11:06:07;2.83;;;1.70;;
3278;SDS011;1651;50.940;6.888;2023-08-06T11:08:34;1.70;;;1.60;;
3278;SDS011;1651;50.940;6.888;2023-08-06T11:11:07;2.27;;;2.07;;
3278;SDS011;1651;50.940;6.888;2023-08-06T11:13:34;4.43;;;2.30;;
3278;SDS011;1651;50.940;6.888;2023-08-06T11:16:00;8.70;;;2.03;;
3278;SDS011;1651;50.940;6.888;2023-08-06T11:18:26;2.03;;;1.70;;
3278;SDS011;1651;50.940;6.888;2023-08-06T11:20:52;6.00;;;1.77;;
3278;SDS011;1651;50.940;6.888;2023-08-06T11:23:18;5.60;;;1.90;;
3278;SDS011;1651;50.940;6.888;2023-08-06T11:25:45;3.50;;;2.90;;
3278;SDS011;1651;50.940;6.888;2023-08-06T11:28:11;3.67;;;2.03;;
3278;SDS011;1651;50.940;6.888;2023-08-06T11:30:37;4.83;;;1.87;;
3278;SDS011;1651;50.940;6.888;2023-08-06T11:33:06;2.63;;;2.33;;
3278;SDS011;1651;50.940;6.888;2023-08-06T11:35:35;3.53;;;1.70;;
3278;SDS011;1651;50.940;6.888;2023-08-06T11:38:01;4.30;;;2.13;;
3278;SDS011;1651;50.940;6.888;2023-08-06T11:40:27;4.87;;;2.00;;
3278;SDS011;1651;50.940;6.888;2023-08-06T11:42:53;3.97;;;1.90;;
3278;SDS011;1651;50.940;6.888;2023-08-06T11:45:23;5.20;;;2.40;;
3278;SDS011;1651;50.940;6.888;2023-08-06T11:47:51;3.30;;;2.00;;
3278;SDS011;1651;50.940;6.888;2023-08-06T11:50:27;3.53;;;1.53;;
3278;SDS011;1651;50.940;6.888;2023-08-06T11:52:57;2.60;;;1.77;;
3278;SDS011;1651;50.940;6.888;2023-08-06T11:55:24;2.97;;;1.70;;
3278;SDS011;1651;50.940;6.888;2023-08-06T11:57:50;3.30;;;1.70;;
3278;SDS011;1651;50.940;6.888;2023-08-06T12:00:16;8.37;;;1.97;;
3278;SDS011;1651;50.940;6.888;2023-08-06T12:02:47;1.77;;;1.30;;
3278;SDS011;1651;50.940;6.888;2023-08-06T12:07:53;5.90;;;2.10;;
3278;SDS011;1651;50.940;6.888;2023-08-06T12:10:21;2.47;;;1.77;;
3278;SDS011;1651;50.940;6.888;2023-08-06T12:12:47;3.17;;;1.50;;
3278;SDS011;1651;50.940;6.888;2023-08-06T12:15:13;3.53;;;1.27;;
3278;SDS011;1651;50.940;6.888;2023-08-06T12:17:39;3.43;;;1.53;;
3278;SDS011;1651;50.940;6.888;2023-08-06T12:20:06;3.13;;;1.30;;
3278;SDS011;1651;50.940;6.888;2023-08-06T12:22:32;2.80;;;1.60;;
3278;SDS011;1651;50.940;6.888;2023-08-06T12:25:03;3.97;;;1.20;;
3278;SDS011;1651;50.940;6.888;2023-08-06T12:27:32;1.80;;;1.27;;
3278;SDS011;1651;50.940;6.888;2023-08-06T12:29:58;2.80;;;1.20;;
3278;SDS011;1651;50.940;6.888;2023-08-06T12:32:25;2.30;;;1.50;;
3278;SDS011;1651;50.940;6.888;2023-08-06T12:34:51;3.60;;;1.57;;
3278;SDS011;1651;50.940;6.888;2023-08-06T12:37:16;3.07;;;1.30;;
3278;SDS011;1651;50.940;6.888;2023-08-06T12:39:44;2.00;;;1.37;;
3278;SDS011;1651;50.940;6.888;2023-08-06T12:42:10;2.60;;;1.30;;
3278;SDS011;1651;50.940;6.888;2023-08-06T12:44:36;2.20;;;1.40;;
3278;SDS011;1651;50.940;6.888;2023-08-06T12:47:02;3.43;;;1.40;;
3278;SDS011;1651;50.940;6.888;2023-08-06T12:49:28;3.50;;;1.60;;
3278;SDS011;1651;50.940;6.888;2023-08-06T12:51:54;3.43;;;2.90;;
3278;SDS011;1651;50.940;6.888;2023-08-06T12:54:21;2.13;;;1.57;;
3278;SDS011;1651;50.940;6.888;2023-08-06T12:56:49;3.20;;;2.10;;
3278;SDS011;1651;50.940;6.888;2023-08-06T12:59:16;2.70;;;1.50;;
3278;SDS011;1651;50.940;6.888;2023-08-06T13:01:42;2.27;;;1.87;;
3278;SDS011;1651;50.940;6.888;2023-08-06T13:04:08;5.70;;;2.23;;
3278;SDS011;1651;50.940;6.888;2023-08-06T13:06:34;2.93;;;1.90;;
3278;SDS011;1651;50.940;6.888;2023-08-06T13:09:08;2.50;;;1.63;;
3278;SDS011;1651;50.940;6.888;2023-08-06T13:11:35;4.00;;;1.90;;
3278;SDS011;1651;50.940;6.888;2023-08-06T13:14:19;3.90;;;2.20;;
3278;SDS011;1651;50.940;6.888;2023-08-06T13:16:45;4.57;;;2.20;;
3278;SDS011;1651;50.940;6.888;2023-08-06T13:19:12;2.57;;;1.70;;
3278;SDS011;1651;50.940;6.888;2023-08-06T13:24:08;4.60;;;2.27;;
3278;SDS011;1651;50.940;6.888;2023-08-06T13:26:34;2.80;;;2.37;;
3278;SDS011;1651;50.940;6.888;2023-08-06T13:29:01;3.20;;;2.40;;
3278;SDS011;1651;50.940;6.888;2023-08-06T13:31:27;2.40;;;2.20;;
3278;SDS011;1651;50.940;6.888;2023-08-06T13:33:57;6.10;;;2.67;;
3278;SDS011;1651;50.940;6.888;2023-08-06T13:36:23;4.70;;;2.27;;
3278;SDS011;1651;50.940;6.888;2023-08-06T13:38:49;3.47;;;2.43;;
3278;SDS011;1651;50.940;6.888;2023-08-06T13:41:15;3.10;;;2.80;;
3278;SDS011;1651;50.940;6.888;2023-08-06T13:43:41;6.87;;;3.03;;
3278;SDS011;1651;50.940;6.888;2023-08-06T13:46:09;3.20;;;2.57;;
3278;SDS011;1651;50.940;6.888;2023-08-06T13:48:38;6.60;;;2.80;;
3278;SDS011;1651;50.940;6.888;2023-08-06T13:51:04;3.73;;;3.40;;
3278;SDS011;1651;50.940;6.888;2023-08-06T13:53:30;4.03;;;2.80;;
3278;SDS011;1651;50.940;6.888;2023-08-06T13:55:56;3.63;;;3.33;;
3278;SDS011;1651;50.940;6.888;2023-08-06T13:58:22;6.97;;;3.97;;
3278;SDS011;1651;50.940;6.888;2023-08-06T14:00:49;4.30;;;3.70;;
3278;SDS011;1651;50.940;6.888;2023-08-06T14:03:17;3.93;;;3.03;;
3278;SDS011;1651;50.940;6.888;2023-08-06T14:05:43;4.10;;;3.67;;
3278;SDS011;1651;50.940;6.888;2023-08-06T14:08:09;5.17;;;3.30;;
3278;SDS011;1651;50.940;6.888;2023-08-06T14:10:35;4.60;;;2.93;;
3278;SDS011;1651;50.940;6.888;2023-08-06T14:13:01;14.13;;;2.37;;
3278;SDS011;1651;50.940;6.888;2023-08-06T14:15:27;3.03;;;1.90;;
3278;SDS011;1651;50.940;6.888;2023-08-06T14:17:53;2.10;;;1.70;;
3278;SDS011;1651;50.940;6.888;2023-08-06T14:20:19;5.40;;;1.60;;
3278;SDS011;1651;50.940;6.888;2023-08-06T14:22:45;4.77;;;1.40;;
3278;SDS011;1651;50.940;6.888;2023-08-06T14:25:11;2.33;;;1.33;;
3278;SDS011;1651;50.940;6.888;2023-08-06T14:27:37;2.70;;;1.60;;
3278;SDS011;1651;50.940;6.888;2023-08-06T14:30:06;8.00;;;1.60;;
3278;SDS011;1651;50.940;6.888;2023-08-06T14:32:33;5.03;;;1.80;;
3278;SDS011;1651;50.940;6.888;2023-08-06T14:34:59;4.27;;;1.60;;
3278;SDS011;1651;50.940;6.888;2023-08-06T14:37:25;2.37;;;1.10;;
3278;SDS011;1651;50.940;6.888;2023-08-06T14:39:51;2.63;;;1.50;;
3278;SDS011;1651;50.940;6.888;2023-08-06T14:42:17;2.07;;;1.23;;
3278;SDS011;1651;50.940;6.888;2023-08-06T14:44:44;3.20;;;1.20;;
3278;SDS011;1651;50.940;6.888;2023-08-06T14:47:10;3.90;;;1.30;;
3278;SDS011;1651;50.940;6.888;2023-08-06T14:49:35;2.43;;;1.60;;
3278;SDS011;1651;50.940;6.888;2023-08-06T14:52:03;2.03;;;1.50;;
3278;SDS011;1651;50.940;6.888;2023-08-06T14:54:29;1.60;;;1.10;;
3278;SDS011;1651;50.940;6.888;2023-08-06T14:56:55;3.50;;;1.13;;
3278;SDS011;1651;50.940;6.888;2023-08-06T14:59:22;2.60;;;1.20;;
3278;SDS011;1651;50.940;6.888;2023-08-06T15:01:48;3.93;;;1.53;;
3278;SDS011;1651;50.940;6.888;2023-08-06T15:04:14;2.83;;;1.17;;
3278;SDS011;1651;50.940;6.888;2023-08-06T15:06:40;3.27;;;1.60;;
3278;SDS011;1651;50.940;6.888;2023-08-06T15:09:07;2.60;;;1.00;;
3278;SDS011;1651;50.940;6.888;2023-08-06T15:11:33;2.40;;;1.17;;
3278;SDS011;1651;50.940;6.888;2023-08-06T15:13:59;2.67;;;1.03;;
3278;SDS011;1651;50.940;6.888;2023-08-06T15:16:25;1.00;;;0.80;;
3278;SDS011;1651;50.940;6.888;2023-08-06T15:18:52;2.50;;;1.30;;
3278;SDS011;1651;50.940;6.888;2023-08-06T15:21:18;1.20;;;0.97;;
3278;SDS011;1651;50.940;6.888;2023-08-06T15:23:44;2.10;;;1.43;;
3278;SDS011;1651;50.940;6.888;2023-08-06T15:26:10;1.63;;;1.10;;
3278;SDS011;1651;50.940;6.888;2023-08-06T15:28:36;1.93;;;1.73;;
3278;SDS011;1651;50.940;6.888;2023-08-06T15:31:02;1.57;;;0.87;;
3278;SDS011;1651;50.940;6.888;2023-08-06T15:33:33;3.10;;;1.00;;
3278;SDS011;1651;50.940;6.888;2023-08-06T15:35:59;2.40;;;1.33;;
3278;SDS011;1651;50.940;6.888;2023-08-06T15:38:25;3.10;;;0.80;;